Terminal Aerodrome Forecast
Issued by NWS

Home | Current Version | Previous Version | Text Only | Print | Product List | Glossary On
Versions: 1 2 3 4 5 6 7 8 9 10 11 12 13 14 15 16 17 18 19 20 21
000
FTUS41 KGYX 010913 AAA
TAFAUG
TAF AMD
KAUG 010913Z 0109/0206 VRB04KT P6SM BKN200
     FM011600 18007KT P6SM OVC040 PROB30 0121/0201 -SHRA OVC025=

USA.gov is the U.S. government's official web portal to all federal, state and local government web resources and services.